sensor_id;sensor_type;location;lat;lon;timestamp;pressure;altitude;pressure_sealevel;temperature;humidity
21824;BME280;11074;48.596;9.238;2023-09-30T00:00:44;99043.22;;;19.17;73.04
21824;BME280;11074;48.596;9.238;2023-09-30T00:03:10;99052.22;;;19.12;73.17
21824;BME280;11074;48.596;9.238;2023-09-30T00:05:39;99023.44;;;19.16;73.01
21824;BME280;11074;48.596;9.238;2023-09-30T00:08:05;99037.59;;;19.13;73.19
21824;BME280;11074;48.596;9.238;2023-09-30T00:10:32;99042.47;;;19.11;73.29
21824;BME280;11074;48.596;9.238;2023-09-30T00:12:57;99041.44;;;19.07;73.14
21824;BME280;11074;48.596;9.238;2023-09-30T00:15:24;99041.66;;;19.11;73.66
21824;BME280;11074;48.596;9.238;2023-09-30T00:17:50;99038.22;;;19.00;73.29
21824;BME280;11074;48.596;9.238;2023-09-30T00:20:16;99039.34;;;18.99;73.32
21824;BME280;11074;48.596;9.238;2023-09-30T00:22:43;99039.66;;;18.93;73.53
21824;BME280;11074;48.596;9.238;2023-09-30T00:25:09;99032.91;;;18.90;73.73
21824;BME280;11074;48.596;9.238;2023-09-30T00:27:36;99051.88;;;18.90;73.63
21824;BME280;11074;48.596;9.238;2023-09-30T00:30:02;99040.47;;;18.93;73.44
21824;BME280;11074;48.596;9.238;2023-09-30T00:32:28;99034.00;;;18.89;73.54
21824;BME280;11074;48.596;9.238;2023-09-30T00:34:54;99033.50;;;18.82;73.68
21824;BME280;11074;48.596;9.238;2023-09-30T00:37:20;99035.44;;;18.76;73.94
21824;BME280;11074;48.596;9.238;2023-09-30T00:39:46;99044.91;;;18.79;74.16
21824;BME280;11074;48.596;9.238;2023-09-30T00:42:12;99039.59;;;18.69;74.27
21824;BME280;11074;48.596;9.238;2023-09-30T00:44:37;99043.97;;;18.65;74.00
21824;BME280;11074;48.596;9.238;2023-09-30T00:47:04;99037.78;;;18.59;74.40
21824;BME280;11074;48.596;9.238;2023-09-30T00:49:32;99037.22;;;18.62;74.30
21824;BME280;11074;48.596;9.238;2023-09-30T00:51:58;99036.41;;;18.62;74.20
21824;BME280;11074;48.596;9.238;2023-09-30T00:54:26;99036.97;;;18.59;74.26
21824;BME280;11074;48.596;9.238;2023-09-30T00:56:54;99042.84;;;18.66;74.13
21824;BME280;11074;48.596;9.238;2023-09-30T00:59:24;99042.09;;;18.60;74.41
21824;BME280;11074;48.596;9.238;2023-09-30T01:01:52;99042.13;;;18.55;74.45
21824;BME280;11074;48.596;9.238;2023-09-30T01:04:20;99042.66;;;18.57;74.57
21824;BME280;11074;48.596;9.238;2023-09-30T01:06:46;99038.34;;;18.56;74.50
21824;BME280;11074;48.596;9.238;2023-09-30T01:09:13;99039.19;;;18.47;74.35
21824;BME280;11074;48.596;9.238;2023-09-30T01:11:40;99038.94;;;18.48;74.69
21824;BME280;11074;48.596;9.238;2023-09-30T01:14:29;99038.63;;;18.55;74.64
21824;BME280;11074;48.596;9.238;2023-09-30T01:16:55;99040.84;;;18.43;74.73
21824;BME280;11074;48.596;9.238;2023-09-30T01:19:22;99046.53;;;18.41;74.51
21824;BME280;11074;48.596;9.238;2023-09-30T01:21:57;99043.53;;;18.43;74.64
21824;BME280;11074;48.596;9.238;2023-09-30T01:24:29;99047.59;;;18.45;74.49
21824;BME280;11074;48.596;9.238;2023-09-30T01:26:58;99041.16;;;18.36;74.61
21824;BME280;11074;48.596;9.238;2023-09-30T01:29:23;99054.47;;;18.28;74.46
21824;BME280;11074;48.596;9.238;2023-09-30T01:31:51;99054.84;;;18.11;74.98
21824;BME280;11074;48.596;9.238;2023-09-30T01:34:17;99052.03;;;18.26;74.69
21824;BME280;11074;48.596;9.238;2023-09-30T01:36:44;99056.34;;;18.32;74.83
21824;BME280;11074;48.596;9.238;2023-09-30T01:39:10;99059.38;;;18.21;75.17
21824;BME280;11074;48.596;9.238;2023-09-30T01:41:40;99059.94;;;18.23;75.08
21824;BME280;11074;48.596;9.238;2023-09-30T01:44:07;99068.06;;;18.12;75.18
21824;BME280;11074;48.596;9.238;2023-09-30T01:46:33;99068.88;;;18.18;75.72
21824;BME280;11074;48.596;9.238;2023-09-30T01:48:59;99062.66;;;18.17;75.43
21824;BME280;11074;48.596;9.238;2023-09-30T01:51:25;99067.78;;;18.19;75.63
21824;BME280;11074;48.596;9.238;2023-09-30T01:53:51;99068.91;;;18.13;75.74
21824;BME280;11074;48.596;9.238;2023-09-30T01:56:17;99069.19;;;18.11;76.02
21824;BME280;11074;48.596;9.238;2023-09-30T01:58:43;99055.66;;;18.11;75.99
21824;BME280;11074;48.596;9.238;2023-09-30T02:01:09;99058.84;;;18.18;76.07
21824;BME280;11074;48.596;9.238;2023-09-30T02:03:34;99054.81;;;18.16;76.44
21824;BME280;11074;48.596;9.238;2023-09-30T02:06:00;99054.03;;;18.10;76.18
21824;BME280;11074;48.596;9.238;2023-09-30T02:08:26;99056.72;;;18.10;76.29
21824;BME280;11074;48.596;9.238;2023-09-30T02:10:51;99054.34;;;18.04;76.79
21824;BME280;11074;48.596;9.238;2023-09-30T02:13:17;99055.72;;;17.96;76.73
21824;BME280;11074;48.596;9.238;2023-09-30T02:15:43;99051.94;;;17.97;76.62
21824;BME280;11074;48.596;9.238;2023-09-30T02:18:09;99055.44;;;17.98;76.86
21824;BME280;11074;48.596;9.238;2023-09-30T02:20:36;99052.25;;;17.91;76.76
21824;BME280;11074;48.596;9.238;2023-09-30T02:23:09;99057.38;;;17.92;76.42
21824;BME280;11074;48.596;9.238;2023-09-30T02:25:39;99074.66;;;18.01;76.54
21824;BME280;11074;48.596;9.238;2023-09-30T02:28:06;99077.34;;;18.06;76.68
21824;BME280;11074;48.596;9.238;2023-09-30T02:30:32;99076.88;;;17.84;76.55
21824;BME280;11074;48.596;9.238;2023-09-30T02:32:58;99083.66;;;17.82;77.25
21824;BME280;11074;48.596;9.238;2023-09-30T02:35:23;99086.31;;;17.92;77.36
21824;BME280;11074;48.596;9.238;2023-09-30T02:37:51;99082.03;;;17.81;76.97
21824;BME280;11074;48.596;9.238;2023-09-30T02:40:17;99086.06;;;17.83;76.84
21824;BME280;11074;48.596;9.238;2023-09-30T02:42:44;99083.16;;;17.75;77.38
21824;BME280;11074;48.596;9.238;2023-09-30T02:45:11;99082.88;;;17.71;77.28
21824;BME280;11074;48.596;9.238;2023-09-30T02:47:39;99070.44;;;17.65;77.69
21824;BME280;11074;48.596;9.238;2023-09-30T02:50:07;99083.41;;;17.68;77.48
21824;BME280;11074;48.596;9.238;2023-09-30T02:52:34;99085.34;;;17.63;77.50
21824;BME280;11074;48.596;9.238;2023-09-30T02:55:00;99086.69;;;17.65;77.45
21824;BME280;11074;48.596;9.238;2023-09-30T02:57:26;99080.47;;;17.70;77.67
21824;BME280;11074;48.596;9.238;2023-09-30T02:59:53;99075.59;;;17.67;77.68
21824;BME280;11074;48.596;9.238;2023-09-30T03:02:20;99078.28;;;17.72;77.88
21824;BME280;11074;48.596;9.238;2023-09-30T03:04:47;99081.50;;;17.79;77.83
21824;BME280;11074;48.596;9.238;2023-09-30T03:07:13;99075.84;;;17.70;77.45
21824;BME280;11074;48.596;9.238;2023-09-30T03:09:39;99084.50;;;17.62;77.43
21824;BME280;11074;48.596;9.238;2023-09-30T03:12:05;99082.66;;;17.37;77.99
21824;BME280;11074;48.596;9.238;2023-09-30T03:14:31;99078.88;;;17.38;78.40
21824;BME280;11074;48.596;9.238;2023-09-30T03:16:58;99094.28;;;17.38;78.38
21824;BME280;11074;48.596;9.238;2023-09-30T03:19:24;99086.72;;;17.40;78.47
21824;BME280;11074;48.596;9.238;2023-09-30T03:21:50;99108.31;;;17.50;78.34
21824;BME280;11074;48.596;9.238;2023-09-30T03:24:16;99108.06;;;17.56;78.44
21824;BME280;11074;48.596;9.238;2023-09-30T03:26:42;99108.31;;;17.50;78.27
21824;BME280;11074;48.596;9.238;2023-09-30T03:29:09;99112.09;;;17.59;78.37
21824;BME280;11074;48.596;9.238;2023-09-30T03:31:35;99106.69;;;17.59;78.18
21824;BME280;11074;48.596;9.238;2023-09-30T03:34:02;99109.97;;;17.56;78.01
21824;BME280;11074;48.596;9.238;2023-09-30T03:36:30;99106.44;;;17.50;78.22
21824;BME280;11074;48.596;9.238;2023-09-30T03:38:56;99106.97;;;17.58;78.50
21824;BME280;11074;48.596;9.238;2023-09-30T03:41:22;99110.22;;;17.60;78.04
21824;BME280;11074;48.596;9.238;2023-09-30T03:43:48;99104.81;;;17.54;77.98
21824;BME280;11074;48.596;9.238;2023-09-30T03:46:15;99101.28;;;17.49;77.82
21824;BME280;11074;48.596;9.238;2023-09-30T03:48:41;99100.75;;;17.52;77.81
21824;BME280;11074;48.596;9.238;2023-09-30T03:51:15;99086.19;;;17.43;77.56
21824;BME280;11074;48.596;9.238;2023-09-30T03:53:42;99083.47;;;17.43;77.99
21824;BME280;11074;48.596;9.238;2023-09-30T03:56:09;99085.06;;;17.49;78.14
21824;BME280;11074;48.596;9.238;2023-09-30T03:58:38;99084.56;;;17.37;78.13
21824;BME280;11074;48.596;9.238;2023-09-30T04:01:04;99072.13;;;17.36;77.94
21824;BME280;11074;48.596;9.238;2023-09-30T04:03:30;99080.50;;;17.34;77.88
21824;BME280;11074;48.596;9.238;2023-09-30T04:05:59;99075.66;;;17.21;78.13
21824;BME280;11074;48.596;9.238;2023-09-30T04:08:24;99080.53;;;17.14;78.61
21824;BME280;11074;48.596;9.238;2023-09-30T04:10:50;99083.00;;;17.06;79.08
21824;BME280;11074;48.596;9.238;2023-09-30T04:13:16;99082.69;;;17.17;78.89
21824;BME280;11074;48.596;9.238;2023-09-30T04:15:43;99072.44;;;17.24;78.80
21824;BME280;11074;48.596;9.238;2023-09-30T04:18:10;99076.22;;;17.08;79.07
21824;BME280;11074;48.596;9.238;2023-09-30T04:20:37;99088.91;;;17.13;79.02
21824;BME280;11074;48.596;9.238;2023-09-30T04:23:09;99091.09;;;17.06;79.00
21824;BME280;11074;48.596;9.238;2023-09-30T04:25:35;99106.50;;;17.05;79.47
21824;BME280;11074;48.596;9.238;2023-09-30T04:28:01;99086.78;;;16.89;79.70
21824;BME280;11074;48.596;9.238;2023-09-30T04:30:28;99094.88;;;16.94;80.06
21824;BME280;11074;48.596;9.238;2023-09-30T04:32:55;99088.94;;;16.98;80.41
21824;BME280;11074;48.596;9.238;2023-09-30T04:35:22;99088.66;;;16.94;79.86
21824;BME280;11074;48.596;9.238;2023-09-30T04:37:47;99085.66;;;16.90;79.80
21824;BME280;11074;48.596;9.238;2023-09-30T04:40:13;99100.56;;;17.03;79.76
21824;BME280;11074;48.596;9.238;2023-09-30T04:42:46;99108.09;;;17.06;80.16
21824;BME280;11074;48.596;9.238;2023-09-30T04:45:15;99114.59;;;17.10;79.63
21824;BME280;11074;48.596;9.238;2023-09-30T04:47:49;99124.06;;;17.03;79.38
21824;BME280;11074;48.596;9.238;2023-09-30T04:50:16;99131.06;;;17.09;79.75
21824;BME280;11074;48.596;9.238;2023-09-30T04:52:42;99132.97;;;17.18;79.52
21824;BME280;11074;48.596;9.238;2023-09-30T04:55:09;99123.50;;;17.16;79.50
21824;BME280;11074;48.596;9.238;2023-09-30T04:57:37;99119.47;;;17.13;80.30
21824;BME280;11074;48.596;9.238;2023-09-30T05:00:04;99106.19;;;17.17;80.22
21824;BME280;11074;48.596;9.238;2023-09-30T05:02:36;99110.81;;;17.16;80.19
21824;BME280;11074;48.596;9.238;2023-09-30T05:05:02;99130.78;;;17.25;80.28
21824;BME280;11074;48.596;9.238;2023-09-30T05:07:31;99129.44;;;17.18;80.67
21824;BME280;11074;48.596;9.238;2023-09-30T05:09:59;99138.09;;;17.20;80.97
21824;BME280;11074;48.596;9.238;2023-09-30T05:12:25;99137.81;;;17.21;81.05
21824;BME280;11074;48.596;9.238;2023-09-30T05:14:51;99137.84;;;17.16;81.11
21824;BME280;11074;48.596;9.238;2023-09-30T05:17:17;99147.81;;;17.16;81.22
21824;BME280;11074;48.596;9.238;2023-09-30T05:19:43;99154.88;;;17.22;80.94
21824;BME280;11074;48.596;9.238;2023-09-30T05:22:10;99146.72;;;17.12;80.80
21824;BME280;11074;48.596;9.238;2023-09-30T05:24:38;99143.22;;;17.01;80.87
21824;BME280;11074;48.596;9.238;2023-09-30T05:27:04;99132.69;;;16.94;81.05
21824;BME280;11074;48.596;9.238;2023-09-30T05:29:30;99144.03;;;16.96;81.21
21824;BME280;11074;48.596;9.238;2023-09-30T05:31:58;99147.25;;;17.04;81.34
21824;BME280;11074;48.596;9.238;2023-09-30T05:34:24;99134.03;;;16.97;81.67
21824;BME280;11074;48.596;9.238;2023-09-30T05:36:50;99119.72;;;17.02;81.14
21824;BME280;11074;48.596;9.238;2023-09-30T05:39:16;99135.38;;;17.10;81.29
21824;BME280;11074;48.596;9.238;2023-09-30T05:41:46;99142.97;;;17.08;81.62
21824;BME280;11074;48.596;9.238;2023-09-30T05:44:12;99133.50;;;17.00;81.65
21824;BME280;11074;48.596;9.238;2023-09-30T05:46:40;99149.19;;;17.18;81.62
21824;BME280;11074;48.596;9.238;2023-09-30T05:49:05;99138.91;;;17.20;81.18
21824;BME280;11074;48.596;9.238;2023-09-30T05:51:36;99125.94;;;17.12;81.20
21824;BME280;11074;48.596;9.238;2023-09-30T05:54:02;99146.75;;;17.22;81.10
21824;BME280;11074;48.596;9.238;2023-09-30T05:56:30;99122.97;;;17.14;80.88
21824;BME280;11074;48.596;9.238;2023-09-30T05:58:56;99125.41;;;17.10;81.06
21824;BME280;11074;48.596;9.238;2023-09-30T06:01:22;99121.59;;;17.01;81.25
21824;BME280;11074;48.596;9.238;2023-09-30T06:03:47;99137.56;;;16.98;81.73
21824;BME280;11074;48.596;9.238;2023-09-30T06:06:14;99152.13;;;17.02;81.77
21824;BME280;11074;48.596;9.238;2023-09-30T06:08:42;99148.38;;;17.08;81.93
21824;BME280;11074;48.596;9.238;2023-09-30T06:11:21;99150.25;;;17.17;81.46
21824;BME280;11074;48.596;9.238;2023-09-30T06:13:54;99148.06;;;17.19;80.73
21824;BME280;11074;48.596;9.238;2023-09-30T06:16:20;99151.06;;;17.23;81.17
21824;BME280;11074;48.596;9.238;2023-09-30T06:18:46;99150.00;;;17.14;81.70
21824;BME280;11074;48.596;9.238;2023-09-30T06:21:13;99147.81;;;17.21;81.82
21824;BME280;11074;48.596;9.238;2023-09-30T06:23:40;99146.19;;;17.15;82.29
21824;BME280;11074;48.596;9.238;2023-09-30T06:26:06;99162.94;;;17.12;82.18
21824;BME280;11074;48.596;9.238;2023-09-30T06:28:32;99166.47;;;17.12;81.89
21824;BME280;11074;48.596;9.238;2023-09-30T06:30:59;99153.22;;;17.11;81.63
21824;BME280;11074;48.596;9.238;2023-09-30T06:33:25;99167.81;;;17.20;81.66
21824;BME280;11074;48.596;9.238;2023-09-30T06:35:54;99166.19;;;17.24;81.60
21824;BME280;11074;48.596;9.238;2023-09-30T06:38:20;99177.28;;;17.32;81.39
21824;BME280;11074;48.596;9.238;2023-09-30T06:40:47;99187.28;;;17.37;81.47
21824;BME280;11074;48.596;9.238;2023-09-30T06:43:16;99184.59;;;17.37;81.39
21824;BME280;11074;48.596;9.238;2023-09-30T06:45:43;99184.84;;;17.40;81.26
21824;BME280;11074;48.596;9.238;2023-09-30T06:48:09;99190.81;;;17.42;81.23
21824;BME280;11074;48.596;9.238;2023-09-30T06:50:49;99192.41;;;17.43;81.33
21824;BME280;11074;48.596;9.238;2023-09-30T06:53:16;99190.81;;;17.42;81.26
21824;BME280;11074;48.596;9.238;2023-09-30T06:55:42;99204.03;;;17.49;81.49
21824;BME280;11074;48.596;9.238;2023-09-30T06:58:12;99210.25;;;17.49;81.28
21824;BME280;11074;48.596;9.238;2023-09-30T07:00:40;99198.09;;;17.32;81.76
21824;BME280;11074;48.596;9.238;2023-09-30T07:03:07;99220.25;;;17.49;81.08
21824;BME280;11074;48.596;9.238;2023-09-30T07:05:36;99225.13;;;17.42;81.24
21824;BME280;11074;48.596;9.238;2023-09-30T07:08:02;99223.50;;;17.41;81.06
21824;BME280;11074;48.596;9.238;2023-09-30T07:10:29;99219.44;;;17.43;81.26
21824;BME280;11074;48.596;9.238;2023-09-30T07:12:55;99214.31;;;17.47;81.29
21824;BME280;11074;48.596;9.238;2023-09-30T07:15:21;99219.50;;;17.53;80.71
21824;BME280;11074;48.596;9.238;2023-09-30T07:17:47;99208.38;;;17.55;80.97
21824;BME280;11074;48.596;9.238;2023-09-30T07:20:13;99206.50;;;17.61;81.07
21824;BME280;11074;48.596;9.238;2023-09-30T07:22:40;99206.75;;;17.59;80.44
21824;BME280;11074;48.596;9.238;2023-09-30T07:25:07;99215.44;;;17.56;81.11
21824;BME280;11074;48.596;9.238;2023-09-30T07:27:33;99214.59;;;17.50;81.19
21824;BME280;11074;48.596;9.238;2023-09-30T07:29:59;99207.31;;;17.56;80.96
21824;BME280;11074;48.596;9.238;2023-09-30T07:32:25;99210.03;;;17.56;80.79
21824;BME280;11074;48.596;9.238;2023-09-30T07:34:51;99224.34;;;17.62;81.01
21824;BME280;11074;48.596;9.238;2023-09-30T07:37:17;99230.81;;;17.66;80.96
21824;BME280;11074;48.596;9.238;2023-09-30T07:39:44;99218.38;;;17.60;81.22
21824;BME280;11074;48.596;9.238;2023-09-30T07:42:10;99234.88;;;17.68;81.00
21824;BME280;11074;48.596;9.238;2023-09-30T07:44:36;99238.94;;;17.76;80.49
21824;BME280;11074;48.596;9.238;2023-09-30T07:47:06;99231.63;;;17.81;80.16
21824;BME280;11074;48.596;9.238;2023-09-30T07:49:32;99221.63;;;17.82;80.17
21824;BME280;11074;48.596;9.238;2023-09-30T07:51:58;99227.00;;;17.87;80.52
21824;BME280;11074;48.596;9.238;2023-09-30T07:54:24;99221.59;;;17.92;79.99
21824;BME280;11074;48.596;9.238;2023-09-30T07:56:50;99221.34;;;17.88;80.78
21824;BME280;11074;48.596;9.238;2023-09-30T07:59:15;99235.94;;;17.97;79.96
21824;BME280;11074;48.596;9.238;2023-09-30T08:01:41;99244.31;;;18.06;79.41
21824;BME280;11074;48.596;9.238;2023-09-30T08:04:07;99238.06;;;18.05;79.64
21824;BME280;11074;48.596;9.238;2023-09-30T08:06:33;99260.25;;;18.12;79.21
21824;BME280;11074;48.596;9.238;2023-09-30T08:08:59;99260.00;;;18.14;79.37
21824;BME280;11074;48.596;9.238;2023-09-30T08:11:24;99240.25;;;18.08;79.56
21824;BME280;11074;48.596;9.238;2023-09-30T08:13:56;99243.22;;;18.12;79.85
21824;BME280;11074;48.596;9.238;2023-09-30T08:16:24;99231.28;;;18.13;80.39
21824;BME280;11074;48.596;9.238;2023-09-30T08:18:50;99241.00;;;18.24;79.18
21824;BME280;11074;48.596;9.238;2023-09-30T08:21:16;99223.13;;;18.33;79.12
21824;BME280;11074;48.596;9.238;2023-09-30T08:23:41;99219.28;;;18.39;78.39
21824;BME280;11074;48.596;9.238;2023-09-30T08:26:08;99226.06;;;18.47;77.68
21824;BME280;11074;48.596;9.238;2023-09-30T08:28:34;99229.31;;;18.49;78.00
21824;BME280;11074;48.596;9.238;2023-09-30T08:31:05;99234.41;;;18.55;77.88
21824;BME280;11074;48.596;9.238;2023-09-30T08:33:32;99235.75;;;18.58;77.69
21824;BME280;11074;48.596;9.238;2023-09-30T08:36:03;99230.91;;;18.60;77.84
21824;BME280;11074;48.596;9.238;2023-09-30T08:38:36;99222.22;;;18.58;78.42
21824;BME280;11074;48.596;9.238;2023-09-30T08:41:03;99219.53;;;18.53;77.77
21824;BME280;11074;48.596;9.238;2023-09-30T08:43:29;99223.00;;;18.63;77.45
21824;BME280;11074;48.596;9.238;2023-09-30T08:45:58;99226.28;;;18.60;76.80
21824;BME280;11074;48.596;9.238;2023-09-30T08:48:29;99231.44;;;18.62;76.51
21824;BME280;11074;48.596;9.238;2023-09-30T08:51:00;99226.50;;;18.69;76.20
21824;BME280;11074;48.596;9.238;2023-09-30T08:53:26;99224.34;;;18.66;75.91
21824;BME280;11074;48.596;9.238;2023-09-30T08:55:55;99216.78;;;18.68;76.02
21824;BME280;11074;48.596;9.238;2023-09-30T08:58:27;99226.78;;;18.72;76.07
21824;BME280;11074;48.596;9.238;2023-09-30T09:00:54;99227.31;;;18.69;76.01
21824;BME280;11074;48.596;9.238;2023-09-30T09:03:21;99227.84;;;18.71;75.81
21824;BME280;11074;48.596;9.238;2023-09-30T09:05:55;99228.38;;;18.79;75.71
21824;BME280;11074;48.596;9.238;2023-09-30T09:08:26;99221.63;;;18.76;75.86
21824;BME280;11074;48.596;9.238;2023-09-30T09:10:57;99213.22;;;18.72;75.71
21824;BME280;11074;48.596;9.238;2023-09-30T09:13:24;99209.72;;;18.67;75.69
21824;BME280;11074;48.596;9.238;2023-09-30T09:16:09;99209.72;;;18.67;76.05
21824;BME280;11074;48.596;9.238;2023-09-30T09:18:35;99215.91;;;18.77;75.92
21824;BME280;11074;48.596;9.238;2023-09-30T09:21:20;99226.72;;;18.83;75.76
21824;BME280;11074;48.596;9.238;2023-09-30T09:23:53;99219.66;;;18.87;75.56
21824;BME280;11074;48.596;9.238;2023-09-30T09:26:31;99217.75;;;18.82;75.31
21824;BME280;11074;48.596;9.238;2023-09-30T09:29:03;99231.84;;;18.89;75.67
21824;BME280;11074;48.596;9.238;2023-09-30T09:31:35;99232.38;;;18.86;75.26
21824;BME280;11074;48.596;9.238;2023-09-30T09:34:03;99233.41;;;18.95;74.91
21824;BME280;11074;48.596;9.238;2023-09-30T09:36:43;99220.22;;;18.84;74.61
21824;BME280;11074;48.596;9.238;2023-09-30T09:39:10;99228.53;;;18.92;74.47
21824;BME280;11074;48.596;9.238;2023-09-30T09:41:53;99217.09;;;19.00;74.29
21824;BME280;11074;48.596;9.238;2023-09-30T09:44:23;99217.84;;;19.11;74.27
21824;BME280;11074;48.596;9.238;2023-09-30T09:46:49;99207.22;;;19.19;74.50
21824;BME280;11074;48.596;9.238;2023-09-30T09:49:17;99191.16;;;19.28;74.09
21824;BME280;11074;48.596;9.238;2023-09-30T09:51:48;99205.19;;;19.35;73.58
21824;BME280;11074;48.596;9.238;2023-09-30T09:54:16;99196.81;;;19.36;72.80
21824;BME280;11074;48.596;9.238;2023-09-30T09:56:45;99201.66;;;19.45;72.55
21824;BME280;11074;48.596;9.238;2023-09-30T09:59:14;99184.50;;;19.49;71.89
21824;BME280;11074;48.596;9.238;2023-09-30T10:01:40;99187.44;;;19.58;70.33
21824;BME280;11074;48.596;9.238;2023-09-30T10:04:11;99176.88;;;19.51;69.83
21824;BME280;11074;48.596;9.238;2023-09-30T10:06:37;99177.47;;;19.48;70.54
21824;BME280;11074;48.596;9.238;2023-09-30T10:09:10;99170.69;;;19.51;69.97
21824;BME280;11074;48.596;9.238;2023-09-30T10:11:38;99179.03;;;19.54;70.45
21824;BME280;11074;48.596;9.238;2023-09-30T10:14:05;99182.75;;;19.63;69.89
21824;BME280;11074;48.596;9.238;2023-09-30T10:19:11;99190.50;;;19.75;69.61
21824;BME280;11074;48.596;9.238;2023-09-30T10:21:38;99189.13;;;19.77;69.33
21824;BME280;11074;48.596;9.238;2023-09-30T10:35:21;99170.78;;;20.17;67.29
21824;BME280;11074;48.596;9.238;2023-09-30T10:40:49;99164.38;;;20.31;66.22
21824;BME280;11074;48.596;9.238;2023-09-30T10:43:33;99164.91;;;20.33;66.00
21824;BME280;11074;48.596;9.238;2023-09-30T10:46:04;99159.63;;;20.42;66.19
21824;BME280;11074;48.596;9.238;2023-09-30T10:48:34;99158.03;;;20.41;66.61
21824;BME280;11074;48.596;9.238;2023-09-30T10:51:11;99160.13;;;20.44;65.64
21824;BME280;11074;48.596;9.238;2023-09-30T10:53:44;99162.69;;;20.59;65.83
21824;BME280;11074;48.596;9.238;2023-09-30T10:56:11;99154.59;;;20.73;65.30
21824;BME280;11074;48.596;9.238;2023-09-30T10:58:44;99145.19;;;20.84;64.29
21824;BME280;11074;48.596;9.238;2023-09-30T11:01:13;99128.88;;;20.84;63.44
21824;BME280;11074;48.596;9.238;2023-09-30T11:03:41;99135.34;;;20.88;62.79
21824;BME280;11074;48.596;9.238;2023-09-30T11:06:07;99137.16;;;20.92;62.20
21824;BME280;11074;48.596;9.238;2023-09-30T11:08:34;99139.13;;;21.05;61.23
21824;BME280;11074;48.596;9.238;2023-09-30T11:11:00;99103.72;;;20.92;60.63
21824;BME280;11074;48.596;9.238;2023-09-30T11:13:33;99123.13;;;21.04;60.60
21824;BME280;11074;48.596;9.238;2023-09-30T11:16:03;99125.94;;;21.18;61.33
21824;BME280;11074;48.596;9.238;2023-09-30T11:18:32;99117.22;;;21.34;60.52
21824;BME280;11074;48.596;9.238;2023-09-30T11:21:09;99109.88;;;21.48;58.40
21824;BME280;11074;48.596;9.238;2023-09-30T11:23:37;99108.59;;;21.59;59.85
21824;BME280;11074;48.596;9.238;2023-09-30T11:26:04;99106.19;;;21.71;59.93
21824;BME280;11074;48.596;9.238;2023-09-30T11:28:41;99112.44;;;21.86;58.38
21824;BME280;11074;48.596;9.238;2023-09-30T11:31:10;99110.06;;;21.98;57.68
21824;BME280;11074;48.596;9.238;2023-09-30T11:33:55;99099.34;;;22.15;56.84
21824;BME280;11074;48.596;9.238;2023-09-30T11:36:24;99107.28;;;22.25;55.55
21824;BME280;11074;48.596;9.238;2023-09-30T11:38:51;99105.81;;;22.19;57.26
21824;BME280;11074;48.596;9.238;2023-09-30T11:41:18;99104.91;;;22.10;56.46
21824;BME280;11074;48.596;9.238;2023-09-30T11:44:10;99109.34;;;22.19;56.02
21824;BME280;11074;48.596;9.238;2023-09-30T11:49:34;99111.47;;;21.95;56.57
21824;BME280;11074;48.596;9.238;2023-09-30T11:52:03;99101.78;;;22.03;55.78
21824;BME280;11074;48.596;9.238;2023-09-30T11:54:34;99111.88;;;22.02;56.02
21824;BME280;11074;48.596;9.238;2023-09-30T11:57:03;99110.66;;;21.95;56.30
21824;BME280;11074;48.596;9.238;2023-09-30T11:59:29;99109.25;;;22.11;55.96
21824;BME280;11074;48.596;9.238;2023-09-30T12:01:56;99103.78;;;22.24;54.74
21824;BME280;11074;48.596;9.238;2023-09-30T12:04:22;99113.03;;;22.37;55.48
21824;BME280;11074;48.596;9.238;2023-09-30T12:06:48;99103.91;;;22.55;54.51
21824;BME280;11074;48.596;9.238;2023-09-30T12:09:17;99096.94;;;22.49;54.12
21824;BME280;11074;48.596;9.238;2023-09-30T12:11:49;99094.75;;;22.51;54.22
21824;BME280;11074;48.596;9.238;2023-09-30T12:14:14;99115.41;;;22.52;53.20
21824;BME280;11074;48.596;9.238;2023-09-30T12:16:41;99102.34;;;22.41;52.84
21824;BME280;11074;48.596;9.238;2023-09-30T12:19:07;99115.63;;;22.56;53.45
21824;BME280;11074;48.596;9.238;2023-09-30T12:21:34;99100.09;;;22.56;52.61
21824;BME280;11074;48.596;9.238;2023-09-30T12:24:03;99108.13;;;22.61;52.79
21824;BME280;11074;48.596;9.238;2023-09-30T12:26:30;99116.22;;;22.66;52.21
21824;BME280;11074;48.596;9.238;2023-09-30T12:28:57;99107.56;;;22.64;52.71
21824;BME280;11074;48.596;9.238;2023-09-30T12:31:22;99111.63;;;22.40;53.38
21824;BME280;11074;48.596;9.238;2023-09-30T12:33:48;99109.59;;;22.45;53.88
21824;BME280;11074;48.596;9.238;2023-09-30T12:36:17;99109.16;;;22.65;51.90
21824;BME280;11074;48.596;9.238;2023-09-30T12:38:43;99104.88;;;22.73;52.15
21824;BME280;11074;48.596;9.238;2023-09-30T12:41:10;99104.28;;;22.62;52.10
21824;BME280;11074;48.596;9.238;2023-09-30T12:43:37;99107.34;;;22.47;52.76
21824;BME280;11074;48.596;9.238;2023-09-30T12:46:02;99104.53;;;22.39;52.69
21824;BME280;11074;48.596;9.238;2023-09-30T12:48:30;99106.06;;;22.31;53.91
21824;BME280;11074;48.596;9.238;2023-09-30T12:50:55;99099.81;;;22.30;53.54
21824;BME280;11074;48.596;9.238;2023-09-30T12:53:21;99092.56;;;22.26;53.53
21824;BME280;11074;48.596;9.238;2023-09-30T12:55:47;99092.28;;;22.14;53.27
21824;BME280;11074;48.596;9.238;2023-09-30T12:58:12;99100.88;;;22.07;52.78
21824;BME280;11074;48.596;9.238;2023-09-30T13:00:38;99104.91;;;21.96;52.97
21824;BME280;11074;48.596;9.238;2023-09-30T13:03:04;99094.94;;;21.92;52.88
21824;BME280;11074;48.596;9.238;2023-09-30T13:05:30;99100.16;;;21.88;53.23
21824;BME280;11074;48.596;9.238;2023-09-30T13:07:56;99101.38;;;21.96;54.02
21824;BME280;11074;48.596;9.238;2023-09-30T13:10:23;99103.91;;;22.06;53.17
21824;BME280;11074;48.596;9.238;2023-09-30T13:12:49;99092.41;;;22.09;53.08
21824;BME280;11074;48.596;9.238;2023-09-30T13:15:16;99098.84;;;22.13;53.45
21824;BME280;11074;48.596;9.238;2023-09-30T13:17:43;99103.31;;;22.09;53.03
21824;BME280;11074;48.596;9.238;2023-09-30T13:20:09;99083.53;;;21.90;53.86
21824;BME280;11074;48.596;9.238;2023-09-30T13:22:38;99086.34;;;21.85;54.21